Latest Coastal Weather Observations for Hamilton Island

IDQ60701

Issued at 11:52 am EST Thursday 23 January 2020 (issued every 10 minutes, with the page automatically refreshed every 10 minutes)

About coastal observations | Map of coastal stations | Coastal observations for QLD | Marine services | Other Formats
Station Details ID: 033106 Name: HAMILTON ISLAND AIRPORT Lat: -20.37 Lon: 148.95 Height: 58.66 m
Data from the previous 72 hours. | See also: Recent months at Hamilton Island
Date/Time
EST
Wind Sea
Height
m
Swell Vis
km
Cloud Weather Temp
°C
Press
hPa
Rain since
9am
mm
Dir  Spd
kts
Gust
kts
Height
m
Period
s
Dir
23/11:30am SE 3 4 - - - - 10 Partly cloudy - 27.5 1011.5 1.0
23/11:13am SSW 2 3 - - - - 10 Partly cloudy - 27.6 1011.7 1.0
23/11:02am E 3 4 - - - - 6 Partly cloudy - 27.0 1011.9 0.8
23/11:00am ESE 2 4 - - - - 7 Partly cloudy - 27.1 1011.9 0.8
23/10:51am SSW 3 5 - - - - 10 Partly cloudy - 27.0 1012.0 0.2
23/10:33am SSW 5 7 - - - - 6 Partly cloudy - 27.2 1012.0 0.2
23/10:30am SSW 6 7 - - - - 10 Partly cloudy - 26.8 1012.0 0.2
23/10:00am SW 5 7 - - - - 10 Partly cloudy - 27.5 1012.0 0.0
23/09:30am WSW 5 7 - - - - 10 Partly cloudy - 27.1 1012.2 0.0
23/09:00am WNW 6 9 - - - - 10 Cloudy Recent precip. 26.8 1012.4 12.0
23/08:43am NW 5 6 - - - - 10 Partly cloudy - 26.1 1012.5 12.0
23/08:33am NNW 6 11 - - - - 6 Partly cloudy - 26.2 1012.5 11.8
23/08:30am N 9 17 - - - - 3 Partly cloudy - 26.1 1012.5 11.4
23/08:15am E 6 19 - - - - 6 Partly cloudy - 27.9 1012.2 0.0
23/08:13am ESE 3 15 - - - - 10 Partly cloudy - 28.6 1012.2 0.0
23/08:00am ENE 1 4 - - - - 10 Partly cloudy - 29.0 1012.1 0.0
23/07:30am N 5 7 - - - - 10 Partly cloudy - 28.1 1011.8 0.0
23/07:00am NNE 6 9 - - - - 10 - - 27.9 1011.4 0.0
23/06:30am NNE 8 9 - - - - 10 - - 27.3 1011.1 0.0
23/06:00am NNE 7 11 - - - - 10 Mostly cloudy - 27.2 1010.9 0.0
23/05:30am NNE 3 4 - - - - 10 - - 27.1 1010.6 0.0
23/05:00am NNW 3 4 - - - - 10 Partly cloudy - 27.1 1010.3 0.0
23/04:54am NNW 3 4 - - - - 10 Partly cloudy - 27.2 1010.3 0.0
23/04:30am NNE 1 3 - - - - 10 Partly cloudy - 27.3 1010.1 0.0
23/04:00am N 5 6 - - - - 10 Cloudy - 27.5 1010.1 0.0
23/03:53am N 5 7 - - - - 10 Partly cloudy - 27.5 1009.9 0.0
23/03:30am N 4 5 - - - - 10 - - 27.4 1009.9 0.0
23/03:00am NNE 4 5 - - - - 10 Partly cloudy - 27.5 1009.9 0.0
23/02:52am NE 4 5 - - - - 10 Partly cloudy - 27.5 1009.9 0.0
23/02:30am NNE 5 6 - - - - 10 Partly cloudy - 27.5 1010.0 0.0
23/02:07am N 5 8 - - - - 10 Partly cloudy - 27.4 1009.9 0.0
23/02:05am N 4 7 - - - - 10 Partly cloudy - 27.4 1009.9 0.0
23/02:00am NE 3 7 - - - - 10 Partly cloudy - 27.4 1010.0 0.0
23/01:51am NE 5 8 - - - - 10 Partly cloudy - 27.5 1010.0 0.0
23/01:30am NE 5 7 - - - - 10 Partly cloudy - 27.5 1010.3 0.0
23/01:00am NNE 7 10 - - - - 10 Partly cloudy - 27.5 1010.4 0.0
23/12:30am NE 7 11 - - - - 10 Partly cloudy - 27.6 1010.8 0.0
23/12:00am NE 8 11 - - - - 10 Mostly clear - 27.6 1011.1 0.0
 
Date/Time
EST
Wind Sea
Height
m
Swell Vis
km
Cloud Weather Temp
°C
Press
hPa
Rain since
9am
mm
Dir  Spd
kts
Gust
kts
Height
m
Period
s
Dir
22/11:30pm NE 7 11 - - - - 10 - - 27.7 1011.5 0.0
22/11:00pm NE 8 10 - - - - 10 - - 27.7 1011.5 0.0
22/10:30pm NE 7 9 - - - - 10 - - 27.7 1011.5 0.0
22/10:00pm NNE 7 8 - - - - 10 - - 27.8 1011.2 0.0
22/09:30pm NNE 8 11 - - - - 10 - - 27.9 1010.9 0.0
22/09:00pm NNE 7 10 - - - - 10 - - 27.9 1010.4 0.0
22/08:30pm NNE 8 11 - - - - 10 - - 28.0 1010.1 0.0
22/08:00pm NNE 6 9 - - - - 10 - - 28.1 1010.0 0.0
22/07:30pm NNE 9 13 - - - - 10 - - 28.2 1009.7 0.0
22/07:00pm NNE 11 14 - - - - 10 - - 28.4 1009.3 0.0
22/06:30pm NNE 10 13 - - - - 10 - - 28.5 1008.9 0.0
22/06:00pm NE 11 17 - - - - 10 - - 28.9 1008.4 0.0
22/05:30pm NE 11 14 - - - - 10 - - 29.3 1008.2 0.0
22/05:00pm NE 9 14 - - - - 10 - - 30.3 1008.3 0.0
22/04:30pm ENE 12 15 - - - - 10 Partly cloudy - 30.1 1008.2 0.0
22/04:00pm NNW 7 10 - - - - 10 Cloudy - 29.8 1008.5 0.0
22/03:30pm NNE 5 9 - - - - 10 Partly cloudy - 30.4 1008.8 0.0
22/03:00pm SSE 3 5 - - - - 10 Cloudy - 30.1 1009.0 0.0
22/02:30pm SE 4 5 - - - - 10 Partly cloudy - 30.6 1009.6 0.0
22/02:00pm NE 4 6 - - - - 10 Partly cloudy - 30.8 1009.9 0.0
22/01:30pm NW 7 11 - - - - 10 Partly cloudy - 31.0 1010.3 0.0
22/01:00pm NW 8 11 - - - - 10 Partly cloudy - 30.5 1010.6 0.0
22/12:30pm NW 9 12 - - - - 10 - - 30.5 1010.8 0.0
22/12:00pm NW 9 11 - - - - 10 Partly cloudy - 30.4 1011.1 0.0
22/11:30am NNW 9 12 - - - - 10 Partly cloudy - 30.8 1011.5 0.0
22/11:00am NW 9 11 - - - - 10 Partly cloudy - 30.8 1011.7 0.0
22/10:30am NW 7 9 - - - - 10 Partly cloudy - 30.3 1011.8 0.0
22/10:00am NW 11 14 - - - - 10 Partly cloudy - 28.8 1011.9 0.0
22/09:30am NNW 9 11 - - - - 10 Partly cloudy - 28.6 1012.0 0.0
22/09:00am NW 8 11 - - - - 10 - - 28.4 1012.1 0.0
22/08:30am NW 7 9 - - - - 10 - - 28.6 1011.7 0.0
22/08:00am NNW 6 7 - - - - 10 - - 28.4 1011.5 0.0
22/07:30am NNW 6 8 - - - - 10 - - 28.1 1011.2 0.0
22/07:00am N 6 7 - - - - 10 - - 27.9 1011.0 0.0
22/06:30am N 4 5 - - - - 10 - - 27.2 1010.8 0.0
22/06:00am N 5 7 - - - - 10 - - 26.9 1010.3 0.0
22/05:30am N 7 9 - - - - 10 - - 27.0 1009.7 0.0
22/05:00am N 6 7 - - - - 10 - - 26.9 1009.7 0.0
22/04:30am N 4 6 - - - - 10 - - 26.8 1009.5 0.0
22/04:00am NNW 6 7 - - - - 10 - - 26.7 1009.4 0.0
22/03:30am N 6 9 - - - - 10 - - 27.1 1009.2 0.0
22/03:00am N 6 8 - - - - 10 Mostly cloudy - 27.2 1009.2 0.0
22/02:30am N 5 7 - - - - 10 - - 27.2 1009.3 0.0
22/02:00am N 4 5 - - - - 10 - - 27.4 1009.4 0.0
22/01:30am N 5 7 - - - - 10 - - 27.4 1009.4 0.0
22/01:00am N 5 7 - - - - 10 - - 27.5 1009.7 0.0
22/12:30am NNE 4 5 - - - - 10 - - 27.6 1010.1 0.0
22/12:00am NNE 5 7 - - - - 10 Mostly cloudy - 27.7 1010.2 0.0
 
Date/Time
EST
Wind Sea
Height
m
Swell Vis
km
Cloud Weather Temp
°C
Press
hPa
Rain since
9am
mm
Dir  Spd
kts
Gust
kts
Height
m
Period
s
Dir
21/11:30pm NNE 6 9 - - - - 10 - - 27.9 1010.4 0.0
21/11:00pm N 7 10 - - - - 10 - - 27.9 1010.4 0.0
21/10:30pm NNE 8 11 - - - - 10 - - 28.0 1010.5 0.0
21/10:00pm NNE 7 9 - - - - 10 - - 28.1 1010.3 0.0
21/09:30pm NNE 7 10 - - - - 10 - - 28.1 1010.1 0.0
21/09:00pm NE 6 8 - - - - 10 Cloudy - 27.9 1009.7 0.0
21/08:30pm NE 7 9 - - - - 10 - - 28.0 1009.4 0.0
21/08:00pm NE 7 10 - - - - 10 - - 28.2 1009.3 0.0
21/07:30pm NE 7 9 - - - - 10 - - 28.4 1009.1 0.0
21/07:00pm NNW 6 8 - - - - 10 Partly cloudy - 28.3 1009.0 0.0
21/06:30pm NW 8 10 - - - - 10 Partly cloudy - 28.6 1008.6 0.0
21/06:00pm NW 9 11 - - - - 10 Mostly cloudy - 28.9 1008.2 0.0
21/05:30pm NW 11 13 - - - - 10 - - 29.5 1008.0 0.0
21/05:00pm NW 13 16 - - - - 10 - - 29.2 1007.9 0.0
21/04:30pm NW 11 14 - - - - 10 - - 29.0 1008.1 0.0
21/04:00pm NW 14 17 - - - - 10 Partly cloudy - 29.1 1008.0 0.0
21/03:30pm NW 13 17 - - - - 10 Partly cloudy - 29.6 1008.2 0.0
21/03:00pm NW 12 15 - - - - 10 - - 30.4 1008.2 0.0
21/02:30pm NW 5 9 - - - - 10 Partly cloudy - 31.8 1008.6 0.0
21/02:00pm WSW 6 8 - - - - 10 Partly cloudy - 32.1 1008.4 0.0
21/01:30pm NNW 4 7 - - - - 10 - - 32.9 1008.9 0.0
21/01:00pm ESE 7 9 - - - - 10 - - 31.9 1009.4 0.0
21/12:30pm ESE 4 6 - - - - 10 - - 32.1 1009.7 0.0
21/12:00pm NW 7 14 - - - - 10 - - 31.2 1010.0 0.0
21/11:30am NW 9 12 - - - - 10 - - 31.1 1010.4 0.0
21/11:00am NNW 9 12 - - - - 10 Partly cloudy - 30.5 1010.6 0.0
21/10:30am NNW 10 14 - - - - 10 Partly cloudy - 29.4 1010.9 0.0
21/10:00am NW 9 11 - - - - 10 Partly cloudy - 30.1 1011.0 0.0
21/09:30am NW 6 9 - - - - 10 Partly cloudy - 29.1 1010.9 0.0
21/09:00am NW 6 8 - - - - 10 Cloudy - 29.2 1010.9 0.0
21/08:30am N 5 7 - - - - 10 Partly cloudy - 29.1 1010.7 0.0
21/08:00am NNW 6 9 - - - - 10 Partly cloudy - 28.4 1010.4 0.0
21/07:30am NNE 7 9 - - - - 10 Partly cloudy - 28.6 1010.2 0.0
21/07:00am NNE 6 8 - - - - 10 Partly cloudy - 28.4 1009.9 0.0
21/06:30am N 6 7 - - - - 10 - - 27.7 1009.7 0.0
21/06:00am N 7 9 - - - - 10 Mostly cloudy - 27.6 1009.2 0.0
21/05:30am NNW 7 9 - - - - 10 - - 27.5 1008.7 0.0
21/05:00am N 7 11 - - - - 10 - - 27.6 1008.1 0.0
21/04:30am N 6 9 - - - - 10 Partly cloudy - 27.7 1007.8 0.0
21/04:00am NE 8 10 - - - - 10 - - 27.6 1007.3 0.0
21/03:30am NNE 8 13 - - - - 10 - - 27.6 1007.3 0.0
21/03:00am NNE 7 10 - - - - 10 Mostly cloudy - 27.5 1007.2 0.0
21/02:30am NE 4 5 - - - - 10 Partly cloudy - 27.3 1007.0 0.0
21/02:00am NE 5 7 - - - - 10 - - 27.2 1007.3 0.0
21/01:37am ENE 7 8 - - - - 10 Partly cloudy - 27.4 1007.8 0.0
21/01:30am E 8 10 - - - - 10 Partly cloudy - 27.5 1007.8 0.0
21/01:19am E 9 10 - - - - 10 Partly cloudy - 27.5 1007.9 0.0
21/01:00am ESE 8 9 - - - - 10 Partly cloudy - 27.4 1008.0 0.0
21/12:30am ESE 8 10 - - - - 10 Partly cloudy - 27.3 1008.4 0.0
21/12:00am SE 10 12 - - - - 10 Cloudy - 27.1 1008.9 0.0
 
Date/Time
EST
Wind Sea
Height
m
Swell Vis
km
Cloud Weather Temp
°C
Press
hPa
Rain since
9am
mm
Dir  Spd
kts
Gust
kts
Height
m
Period
s
Dir
20/11:30pm SE 11 13 - - - - 10 Partly cloudy - 27.0 1009.6 0.0
20/11:00pm SSE 13 15 - - - - 10 Partly cloudy - 27.3 1010.0 0.0
20/10:30pm S 1 5 - - - - 10 Partly cloudy - 28.1 1010.3 0.0
20/10:00pm CALM 0 2 - - - - 10 - - 28.2 1010.4 0.0
20/09:30pm CALM 0 3 - - - - 10 - - 28.2 1010.5 0.0
20/09:00pm WNW 5 6 - - - - 10 Mostly cloudy - 28.4 1010.2 0.0
20/08:30pm NNW 1 5 - - - - 10 - - 28.4 1009.8 0.0
20/08:00pm N 4 6 - - - - 10 Partly cloudy - 28.5 1009.6 0.0
20/07:30pm NE 7 11 - - - - 10 - - 28.5 1008.8 0.0
20/07:00pm NE 11 16 - - - - 10 - - 28.6 1007.1 0.0
20/06:30pm NE 12 16 - - - - 10 - - 28.6 1006.7 0.0
20/06:00pm NE 13 18 - - - - 10 - - 28.9 1005.5 0.0
20/05:30pm NE 15 19 - - - - 10 Partly cloudy - 29.2 1005.2 0.0
20/05:00pm NE 15 18 - - - - 10 Partly cloudy - 29.6 1005.4 0.0
20/04:30pm NE 15 19 - - - - 10 Partly cloudy - 30.0 1005.1 0.0
20/04:00pm NE 14 19 - - - - 10 Partly cloudy - 30.7 1005.0 0.0
20/03:30pm N 9 13 - - - - 10 Partly cloudy - 31.7 1005.4 0.0
20/03:00pm NW 10 12 - - - - 10 Partly cloudy - 32.5 1005.6 0.0
20/02:30pm NW 9 12 - - - - 10 - - 33.0 1005.8 0.0
20/02:00pm NW 10 14 - - - - 10 - - 31.8 1006.1 0.0
20/01:30pm NW 9 11 - - - - 10 - - 32.6 1006.2 0.0
20/01:00pm NNW 11 14 - - - - 10 - - 31.8 1006.3 0.0
20/12:30pm NNW 11 15 - - - - 10 - - 31.7 1006.8 0.0
20/12:00pm NNW 9 11 - - - - 10 - - 31.6 1007.3 0.0

Other formats

Comma delimited format used in spreadsheet applications
http://www.bom.gov.au/fwo/IDQ60701/IDQ60701.94368.axf

JavaScript Object Notation format (JSON) in row-major order
http://www.bom.gov.au/fwo/IDQ60701/IDQ60701.94368.json

Data quality

Most of these data are generated automatically and are frequently updated. Quality checks on data are not normally performed. It is possible for incorrect values to appear. Refer to information at About Latest Weather Observations and please check the disclaimer before using these data.